LFMU/BZR METAR and TAF weather

Enter ICAO airport designator
Station Type Date Time Source
LFMU METAR 2022/01/27 23:30 UTC NOAA

LFMU 272330Z AUTO 30007KT CAVOK 04/M02 Q1029


Station Type Date Time Source
LFMU Decoded METAR 2022/01/27 23:30 UTC NOAA

Beziers / Vias, France (LFMU) 43-19N 003-21E
Jan 27, 2022 - 06:30 PM EST / 2022.01.27 2330 UTC
Wind: from the WNW (300 degrees) at 8 MPH (7 KT):0
Visibility: greater than 7 mile(s):0
Temperature: 39 F (4 C)
Dew Point: 28 F (-2 C)
Relative Humidity: 64%
Pressure (altimeter): 30.39 in. Hg (1029 hPa)
ob: LFMU 272330Z AUTO 30007KT CAVOK 04/M02 Q1029
cycle: 23

Station Type Date Time Source
LFMU TAF 2022/01/27 19:48 UTC NOAA

TAF TAF LFMU 271938Z 2719/2815 CNL

Example: see airport list